Estación Meteorológica Peña el Pijo (Robertgarden) [ 12/17/17 01:31:54 CET ]

Fecha Hora Presion(HPa) Temp (°C) Humedad % Rocio (°C) Viento ( m/s) Direccion Lluvia 1Hora(mm) Lluvia 24H(mm) LLuvia Total(mm)
2017-Oct-26 01:01:49 1019.200 6.9 71 2.0         1466.45
2017-Oct-26 02:01:43 1018.800 6.1 74 1.8         1466.45
2017-Oct-26 03:02:08 1018.500 5.8 75 1.7         1466.45
2017-Oct-26 04:10:03 1018.200 5.2 77 1.5         1466.45
2017-Oct-26 05:01:45 1018.100 4.9 77 1.2         1466.45
2017-Oct-26 06:01:57 1018.100 4.5 78 1.0         1466.45
2017-Oct-26 07:01:35 1018.400 4.1 79 0.8         1466.45
2017-Oct-26 08:01:34 1018.800 3.9 79 0.6         1466.45
2017-Oct-26 09:01:29 1018.800 3.6 79 0.3         1466.45
2017-Oct-26 10:01:31 1019.000 9.2 78 5.7         1466.45
2017-Oct-26 11:01:44 1019.000 19.4 48 8.1         1466.45
2017-Oct-26 12:01:41 1018.800 24.5 32 6.7         1466.45
2017-Oct-26 13:01:33 1018.700 26.8 26 5.5         1466.45
2017-Oct-26 14:01:28 1018.300 27.6 21 3.3         1466.45
2017-Oct-26 15:01:44 1017.700 28.7 19 2.6         1466.45
2017-Oct-26 16:01:34 1017.600 29.6 16 0.5         1466.45
2017-Oct-26 17:01:42 1017.900 28.1 16 -0.7         1466.45
2017-Oct-26 18:01:42 1018.000 26.3 20 1.6         1466.45
2017-Oct-26 19:01:47 1018.400 20.9 31 3.1         1466.45
2017-Oct-26 20:01:42 1019.300 14.9 39 1.0         1466.45
2017-Oct-26 21:01:38 1019.900 11.0 48 0.4         1466.45
2017-Oct-26 22:01:48 1020.300 8.9 54 0.0         1466.45
2017-Oct-26 23:01:56 1020.800 8.3 56 -0.0         1466.45

Temperatura Máxima:29°    Temperatura Mínima:
Presión Máxima:1020.800 Hpa    Presión Mínima:1017.600 Hpa


Volver